Terminal Aerodrome Forecast
Issued by NWS

Home | Current Version | Previous Version | Text Only | Print | Product List | Glossary On
Versions: 1 2 3 4 5 6 7 8 9 10 11 12 13 14 15 16 17 18 19 20 21 22 23 24 25 26 27 28 29
213
FTUS41 KBGM 050201 AAA
TAFELM
TAF AMD
KELM 050201Z 0502/0524 VRB03KT P6SM OVC022
     FM050600 VRB06KT P6SM OVC015
      TEMPO 0509/0513 2SM BR OVC011
     FM051400 04008KT P6SM BKN045=

USA.gov is the U.S. government's official web portal to all federal, state and local government web resources and services.